Latest Weather Observations for Mawson*

IDT60801

Issued at 8:05 pm EDT Saturday 25 October 2014 (issued every 30 minutes, with the page automatically refreshed every 10 minutes)

About weather observations | Map of weather stations | Latest weather observations for ANT | Other Formats
Station Details ID: 300001 Name: MAWSON Lat: -67.60 Lon: 62.88 Height: 9.9 m
Data from the previous 72 hours. | See also: Recent months at Mawson*
Date/Time
EDT
Temp
°C
App
Temp
°C
Dew
Point
Rel
Hum
%
Delta-T
°C
Wind Press
QNH
hPa
Press
MSL
hPa
Rain
since 9 am
mm
Dir
 
Spd
km/h
Gust
km/h
Spd
kts
Gust
kts
25/08:00pm -8.0 -22.5 -14.0 62 - SE 59 72 32 39 984.6 984.8 -
25/07:33pm -7.8 -22.4 -15.5 54 - SE 59 78 32 42 984.5 - -
25/07:30pm -8.1 -22.7 -15.3 56 - SE 59 72 32 39 984.4 - -
25/07:00pm -8.1 -23.1 -15.3 56 - SE 61 74 33 40 984.1 - -
25/06:30pm -8.4 -24.2 -15.8 55 - SE 65 83 35 45 983.9 - -
25/06:00pm -8.4 -24.6 -16.7 51 - SE 67 85 36 46 983.5 - -
25/05:48pm -8.3 -24.4 -15.7 55 - SE 67 85 36 46 983.5 - -
25/05:30pm -8.2 -24.8 -17.5 47 - SE 69 85 37 46 983.0 - -
25/05:00pm -8.4 -24.6 -17.7 47 - SE 67 87 36 47 982.9 983.1 -
25/04:31pm -8.8 -25.6 -18.3 46 - SE 70 89 38 48 983.0 - -
25/04:30pm -8.7 -25.9 -17.9 47 - SE 72 89 39 48 983.1 - -
25/04:14pm -8.8 -25.6 -18.3 46 - SE 70 91 38 49 982.9 - -
25/04:00pm -8.8 -26.8 -18.5 45 - SE 76 91 41 49 982.8 - -
25/03:50pm -9.2 -26.0 -18.2 48 - SE 70 89 38 48 983.2 - -
25/03:30pm -9.1 -27.1 -18.8 45 - SE 76 93 41 50 982.7 - -
25/03:16pm -9.3 -27.7 -18.7 46 - SE 78 98 42 53 982.3 - -
25/03:00pm -9.6 -28.3 -19.0 46 - SE 80 95 43 51 982.1 - -
25/02:33pm -9.7 -28.1 -19.1 46 - SE 78 96 42 52 982.1 - -
25/02:30pm -9.5 -27.9 -18.9 46 - SE 78 95 42 51 981.9 - -
25/02:01pm -10.1 -28.1 -19.0 48 - SE 76 95 41 51 982.2 - -
25/02:00pm -10.0 -28.4 -19.1 47 - SE 78 95 42 51 982.1 982.3 -
25/01:48pm -10.0 -27.6 -19.4 46 - SE 74 95 40 51 982.3 - -
25/01:30pm -10.1 -27.0 -19.2 47 - SE 70 83 38 45 982.7 - -
25/01:00pm -10.4 -27.7 -20.5 43 - SE 72 93 39 50 982.6 - -
25/12:30pm -10.0 -27.3 -21.3 39 - SE 72 93 39 50 982.2 - -
25/12:16pm -10.1 -27.1 -22.0 37 - SE 70 89 38 48 982.4 - -
25/12:00pm -10.4 -28.1 -21.9 38 - SE 74 87 40 47 982.3 - -
25/11:30am -10.3 -27.2 -21.8 38 - SE 70 83 38 45 982.3 - -
25/11:12am -10.2 -27.9 -23.0 34 - SE 74 93 40 50 982.3 - -
25/11:00am -10.4 -28.5 -23.2 34 - SE 76 89 41 48 982.3 982.5 -
25/10:30am -11.0 -29.1 -23.7 34 - SE 76 91 41 49 982.2 - -
25/10:00am -11.2 -29.4 -24.2 33 - SE 76 93 41 50 982.2 - -
25/09:54am -11.1 -28.9 -24.5 32 - SE 74 93 40 50 982.3 - -
25/09:30am -11.3 -29.5 -24.7 32 - SE 76 93 41 50 982.3 - -
25/09:00am -11.7 -30.3 -25.7 30 - SE 78 98 42 53 982.3 - -
25/08:30am -12.4 -31.9 -26.3 30 - SE 83 104 45 56 982.0 - -
25/08:02am -12.3 -31.6 -25.9 31 - SE 82 100 44 54 982.4 - -
25/08:00am -12.4 -32.3 -25.6 32 - SE 85 100 46 54 982.1 982.3 -
25/07:30am -11.8 -28.7 -26.2 29 - SE 69 102 37 55 981.9 - -
25/07:29am -12.1 -27.8 -25.7 31 - ESE 63 98 34 53 982.3 - -
25/07:26am -12.4 -26.4 -26.7 29 - ESE 54 80 29 43 982.6 - -
25/07:00am -12.1 -30.7 -26.4 29 - SE 78 96 42 52 982.2 - -
25/06:30am -12.1 -29.0 -26.1 30 - SE 69 91 37 49 982.5 - -
25/06:19am -11.8 -27.9 -25.1 32 - SE 65 91 35 49 982.4 - -
25/06:00am -12.3 -29.2 -26.3 30 - SE 69 83 37 45 982.4 - -
25/05:30am -11.9 -28.9 -25.5 31 - SE 70 89 38 48 982.7 - -
25/05:13am -12.1 -29.5 -25.7 31 - SE 72 91 39 49 982.5 - -
25/05:00am -12.3 -30.5 -25.5 32 - SE 76 93 41 50 982.1 982.3 -
25/04:30am -12.1 -29.9 -25.4 32 - SE 74 91 40 49 982.3 - -
25/04:03am -11.7 -29.1 -25.4 31 - SE 72 91 39 49 982.3 - -
25/04:00am -11.8 -29.2 -25.1 32 - SE 72 89 39 48 982.3 - -
25/03:34am -11.5 -28.9 -24.8 32 - SE 72 95 39 51 982.3 - -
25/03:30am -11.6 -29.0 -24.9 32 - SE 72 85 39 46 982.2 - -
25/03:00am -11.7 -29.1 -24.3 34 - SE 72 87 39 47 982.6 - -
25/02:38am -11.3 -27.7 -24.0 34 - SE 67 85 36 46 982.8 - -
25/02:30am -10.7 -27.5 -24.1 32 - SE 69 83 37 45 982.6 - -
25/02:04am -10.4 -25.7 -23.9 32 - SE 61 80 33 43 982.6 - -
25/02:00am -10.5 -26.2 -23.3 34 - SE 63 78 34 42 982.8 983.0 -
25/01:30am -10.8 -26.0 -21.7 40 - SE 61 80 33 43 982.7 - -
25/01:04am -10.3 -25.9 -22.1 37 - SE 63 82 34 44 983.0 - -
25/01:00am -10.0 -26.0 -21.9 37 - SE 65 80 35 43 982.7 - -
25/12:45am -9.8 -24.7 -21.7 37 - SE 59 80 32 43 982.7 - -
25/12:30am -9.6 -24.4 -21.5 37 - SE 59 72 32 39 982.7 - -
25/12:17am -9.5 -24.7 -21.7 36 - SE 61 80 33 43 982.6 - -
25/12:00am -9.2 -23.1 -21.5 36 - SE 54 67 29 36 982.7 - -
 
Date/Time
EDT
Temp
°C
App
Temp
°C
Dew
Point
Rel
Hum
%
Delta-T
°C
Wind Press
QNH
hPa
Press
MSL
hPa
Rain
since 9 am
mm
Dir
 
Spd
km/h
Gust
km/h
Spd
kts
Gust
kts
24/11:35pm -9.0 -22.5 -20.7 38 - SE 52 70 28 38 982.6 - -
24/11:30pm -8.9 -22.0 -20.0 40 - SE 50 63 27 34 982.6 - -
24/11:00pm -8.8 -23.0 -19.9 40 - SE 56 67 30 36 982.6 982.8 -
24/10:30pm -8.5 -22.3 -19.9 39 - SE 54 69 29 37 982.3 - -
24/10:04pm -8.4 -22.2 -19.8 39 - SE 54 72 29 39 982.4 - -
24/10:00pm -8.5 -22.3 -19.6 40 - SE 54 67 29 36 982.5 - -
24/09:50pm -8.6 -23.0 -18.4 45 - SE 57 76 31 41 982.6 - -
24/09:30pm -8.6 -23.0 -19.2 42 - SE 57 72 31 39 982.6 - -
24/09:00pm -8.4 -23.5 -19.3 41 - SE 61 72 33 39 982.3 - -
24/08:33pm -8.7 -23.1 -19.5 41 - SE 57 76 31 41 982.3 - -
24/08:30pm -8.7 -23.4 -18.7 44 - SE 59 72 32 39 982.5 - -
24/08:00pm -8.6 -24.1 -17.8 47 - SE 63 76 34 41 982.4 982.6 -
24/07:30pm -8.8 -23.5 -18.5 45 - SE 59 72 32 39 982.3 - -
24/07:00pm -8.7 -23.1 -19.5 41 - SE 57 72 31 39 982.4 - -
24/06:30pm -9.2 -23.4 -18.9 45 - SE 56 69 30 37 982.5 - -
24/06:00pm -9.0 -23.8 -20.1 40 - SE 59 70 32 38 982.3 - -
24/05:48pm -9.0 -23.8 -20.1 40 - SE 59 78 32 42 982.4 - -
24/05:30pm -9.2 -24.4 -21.2 37 - SE 61 76 33 41 982.3 - -
24/05:08pm -9.4 -23.7 -21.7 36 - SE 56 74 30 40 982.4 - -
24/05:00pm -9.4 -23.9 -21.7 36 - SE 57 74 31 40 982.3 982.5 -
24/04:30pm -9.7 -24.2 -21.3 38 - SE 57 69 31 37 982.2 - -
24/04:00pm -10.2 -24.1 -22.7 35 - SE 54 65 29 35 982.4 - -
24/03:50pm -10.4 -23.9 -22.5 36 - SE 52 70 28 38 982.2 - -
24/03:30pm -10.8 -24.7 -22.6 37 - SE 54 65 29 35 982.5 - -
24/03:00pm -11.6 -24.8 -23.0 38 - SE 50 65 27 35 982.7 - -
24/02:30pm -11.8 -25.8 -23.8 36 - SE 54 65 29 35 982.5 - -
24/02:00pm -12.2 -26.2 -24.8 34 - SE 54 67 29 36 982.4 982.6 -
24/01:30pm -13.0 -27.0 -24.6 37 - SE 54 69 29 37 983.0 - -
24/01:00pm -13.4 -27.8 -24.6 38 - SE 56 67 30 36 982.8 - -
24/12:30pm -13.4 -27.8 -26.2 33 - SE 56 69 30 37 982.6 - -
24/12:09pm -13.6 -26.8 -25.1 37 - SE 50 69 27 37 982.7 - -
24/12:00pm -13.8 -27.8 -25.6 36 - SE 54 67 29 36 982.8 - -
24/11:30am -14.7 -29.3 -26.1 37 - SE 57 70 31 38 982.6 - -
24/11:11am -14.4 -29.0 -26.1 36 - SE 57 76 31 41 982.3 - -
24/11:00am -14.9 -29.3 -25.7 39 - SE 56 69 30 37 982.8 983.0 -
24/10:30am -15.0 -29.4 -25.8 39 - SE 56 72 30 39 982.6 - -
24/10:07am -14.7 -28.0 -26.1 37 - SE 50 70 27 38 982.7 - -
24/10:00am -14.5 -28.1 -26.2 36 - SE 52 63 28 34 982.9 - -
24/09:30am -14.0 -30.1 -26.4 34 - SE 65 78 35 42 982.3 - -
24/09:12am -14.1 -28.1 -26.2 35 - SE 54 72 29 39 982.3 - -
24/09:00am -14.0 -28.6 -26.1 35 - SE 57 70 31 38 982.4 - -
24/08:30am -14.3 -29.3 -25.5 38 - SE 59 74 32 40 982.3 - -
24/08:08am -14.2 -28.2 -25.7 37 - SE 54 72 29 39 982.5 - -
24/08:00am -13.6 -28.2 -26.4 33 - SE 57 72 31 39 982.5 982.7 -
24/07:30am -13.9 -28.3 -26.3 34 - SE 56 67 30 36 982.4 - -
24/07:00am -13.8 -28.4 -26.2 34 - SE 57 69 31 37 982.5 - -
24/06:30am -14.2 -27.8 -25.7 37 - SE 52 72 28 39 982.6 - -
24/06:29am -14.1 -27.3 -25.6 37 - SE 50 72 27 39 982.6 - -
24/06:00am -13.9 -28.3 -26.3 34 - SE 56 70 30 38 982.4 - -
24/05:54am -14.1 -28.5 -25.6 37 - SE 56 74 30 40 982.6 - -
24/05:30am -14.2 -27.8 -25.1 39 - SE 52 69 28 37 982.4 - -
24/05:00am -14.1 -28.5 -25.6 37 - SE 56 65 30 35 982.6 982.8 -
24/04:30am -13.8 -28.4 -25.6 36 - SE 57 69 31 37 982.5 - -
24/04:14am -13.8 -27.8 -25.0 38 - SE 54 72 29 39 982.7 - -
24/04:00am -14.2 -29.5 -25.4 38 - SE 61 72 33 39 982.5 - -
24/03:30am -13.7 -29.0 -24.9 38 - SE 61 76 33 41 982.4 - -
24/03:04am -13.7 -28.1 -24.9 38 - SE 56 76 30 41 982.3 - -
24/03:00am -13.7 -28.3 -24.9 38 - SE 57 72 31 39 982.9 - -
24/02:30am -13.1 -26.7 -23.8 40 - SE 52 63 28 34 982.8 - -
24/02:00am -13.0 -27.3 -23.4 41 - SE 56 69 30 37 982.5 982.7 -
24/01:30am -12.5 -25.7 -22.7 42 - SE 50 63 27 34 982.7 - -
24/01:00am -12.2 -24.6 -22.2 43 - SE 46 57 25 31 982.6 - -
24/12:30am -11.8 -24.6 -21.5 44 - SE 48 56 26 30 983.0 - -
24/12:00am -11.3 -24.0 -20.8 45 - SE 48 59 26 32 982.8 - -
 
Date/Time
EDT
Temp
°C
App
Temp
°C
Dew
Point
Rel
Hum
%
Delta-T
°C
Wind Press
QNH
hPa
Press
MSL
hPa
Rain
since 9 am
mm
Dir
 
Spd
km/h
Gust
km/h
Spd
kts
Gust
kts
23/11:30pm -10.8 -21.8 -20.9 43 - ESE 39 54 21 29 982.9 - -
23/11:00pm -10.5 -21.5 -20.9 42 - ESE 39 52 21 28 983.0 983.2 -
23/10:30pm -10.3 -21.7 -20.2 44 - ESE 41 57 22 31 983.1 - -
23/10:22pm -10.3 -21.3 -20.7 42 - ESE 39 57 21 31 983.1 - -
23/10:00pm -10.2 -20.8 -20.6 42 - ESE 37 50 20 27 983.1 - -
23/09:30pm -10.2 -21.6 -20.3 43 - ESE 41 54 22 29 983.3 - -
23/09:00pm -10.1 -20.8 -21.1 40 - ESE 37 50 20 27 983.5 - -
23/08:30pm -9.9 -20.2 -20.9 40 - ESE 35 54 19 29 983.6 - -
23/08:25pm -10.0 -19.9 -21.0 40 - ESE 33 46 18 25 983.7 - -
23/08:00pm -10.9 -18.2 -18.8 52 - NE 20 28 11 15 983.9 984.1 -
23/07:30pm -10.7 -18.0 -18.6 52 - NE 20 26 11 14 984.0 - -
23/07:00pm -10.4 -20.1 -20.8 42 - E 32 39 17 21 983.9 - -
23/06:30pm -10.8 -20.7 -20.9 43 - E 33 43 18 23 984.0 - -
23/06:00pm -11.1 -20.4 -21.2 43 - E 30 39 16 21 984.0 - -
23/05:45pm -11.4 -21.3 -21.4 43 - ESE 33 52 18 28 984.0 - -
23/05:30pm -11.5 -21.8 -20.8 46 - E 35 50 19 27 984.0 - -
23/05:00pm -12.1 -22.4 -22.3 42 - ESE 35 46 19 25 983.9 984.1 -
23/04:30pm -12.6 -24.1 -22.3 44 - ESE 41 50 22 27 983.8 - -
23/04:00pm -13.0 -25.4 -22.6 44 - ESE 46 57 25 31 983.8 - -
23/03:30pm -13.7 -26.9 -23.5 43 - ESE 50 59 27 32 983.5 - -
23/03:00pm -14.7 -29.1 -24.2 44 - SE 56 65 30 35 983.7 - -
23/02:30pm -15.2 -30.5 -25.7 40 - SE 61 74 33 40 983.6 - -
23/02:02pm -15.8 -30.4 -26.0 41 - ESE 57 76 31 41 983.7 - -
23/02:00pm -15.8 -30.8 -26.0 41 - ESE 59 69 32 37 983.8 984.0 -
23/01:30pm -16.2 -31.6 -26.9 39 - SE 61 72 33 39 983.9 - -
23/01:00pm -16.8 -31.8 -27.4 39 - SE 59 69 32 37 984.0 - -
23/12:30pm -17.1 -32.1 -27.4 40 - SE 59 69 32 37 984.1 - -
23/12:00pm -17.5 -32.1 -27.5 41 - SE 57 65 31 35 984.4 - -
23/11:30am -17.9 -32.3 -28.2 40 - SE 56 65 30 35 984.6 - -
23/11:00am -18.2 -33.2 -28.2 41 - SE 59 72 32 39 984.5 984.7 -
23/10:30am -17.7 -33.5 -28.5 38 - SE 63 76 34 41 984.6 - -
23/10:00am -17.5 -33.7 -28.3 38 - SE 65 74 35 40 984.7 - -
23/09:30am -17.7 -33.5 -28.2 39 - SE 63 72 34 39 984.8 - -
23/09:00am -17.7 -33.1 -28.0 40 - SE 61 72 33 39 984.9 - -
23/08:30am -17.8 -33.2 -27.8 41 - SE 61 70 33 38 984.9 - -
23/08:00am -17.4 -32.8 -28.3 38 - SE 61 70 33 38 984.9 985.1 -
23/07:30am -17.5 -32.9 -27.8 40 - SE 61 70 33 38 985.0 - -
23/07:00am -17.2 -33.3 -28.1 38 - SE 65 72 35 39 985.0 - -
23/06:30am -16.6 -32.4 -27.8 37 - SE 63 74 34 40 985.2 - -
23/06:00am -16.1 -31.5 -28.0 35 - SE 61 72 33 39 985.4 - -
23/05:30am -15.5 -30.1 -27.4 35 - SE 57 69 31 37 985.6 - -
23/05:00am -15.3 -29.3 -26.6 37 - SE 54 65 29 35 985.7 985.9 -
23/04:30am -14.5 -28.5 -26.8 34 - SE 54 63 29 34 985.9 - -
23/04:00am -14.1 -27.3 -24.7 40 - SE 50 59 27 32 986.0 - -
23/03:30am -13.6 -26.4 -24.0 41 - SE 48 56 26 30 986.1 - -
23/03:00am -13.0 -24.1 -21.9 47 - SE 39 46 21 25 986.5 - -
23/02:30am -12.6 -23.3 -21.1 49 - SE 37 43 20 23 986.5 - -
23/02:00am -12.3 -22.6 -21.3 47 - ESE 35 43 19 23 986.5 986.7 -
23/01:30am -12.1 -21.8 -21.1 47 - ESE 32 37 17 20 986.5 - -

Other Formats:

Comma delimited format used in spreadsheet applications
http://www.bom.gov.au/fwo/IDT60803/IDT60803.89564.axf

JavaScript Object Notation format (JSON) in row-major order
http://www.bom.gov.au/fwo/IDT60803/IDT60803.89564.json